createdAt,value
2023-05-24T00:00:22.312Z,4.22
2023-05-24T00:04:30.588Z,4.80
2023-05-24T00:08:40.624Z,4.30
2023-05-24T00:12:45.719Z,3.80
2023-05-24T00:16:51.545Z,3.80
2023-05-24T00:20:57.998Z,3.35
2023-05-24T00:25:02.435Z,2.60
2023-05-24T00:29:06.022Z,2.70
2023-05-24T00:33:10.957Z,2.92
2023-05-24T00:37:15.270Z,3.20
2023-05-24T00:41:19.915Z,3.55
2023-05-24T00:45:25.406Z,4.00
2023-05-24T00:49:29.347Z,4.00
2023-05-24T00:53:38.050Z,4.50
2023-05-24T00:57:42.512Z,4.82
2023-05-24T01:01:47.180Z,4.35
2023-05-24T01:05:51.230Z,4.65
2023-05-24T01:10:05.823Z,4.43
2023-05-24T01:14:21.283Z,4.82
2023-05-24T01:18:30.433Z,4.68
2023-05-24T01:23:01.045Z,4.88
2023-05-24T01:27:11.314Z,4.82
2023-05-24T01:31:17.189Z,4.93
2023-05-24T01:35:24.869Z,5.07
2023-05-24T01:39:31.363Z,5.35
2023-05-24T01:43:42.559Z,5.80
2023-05-24T01:47:57.674Z,5.70
2023-05-24T01:52:05.565Z,5.43
2023-05-24T01:56:10.299Z,5.40
2023-05-24T02:00:16.158Z,5.28
2023-05-24T02:04:20.748Z,5.50
2023-05-24T02:08:26.487Z,5.25
2023-05-24T02:12:29.480Z,5.72
2023-05-24T02:16:34.339Z,5.30
2023-05-24T02:20:38.006Z,5.05
2023-05-24T02:24:42.355Z,5.35
2023-05-24T02:28:48.288Z,5.28
2023-05-24T02:32:53.994Z,6.13
2023-05-24T02:36:57.081Z,5.35
2023-05-24T02:41:03.218Z,5.97
2023-05-24T02:45:10.016Z,5.50
2023-05-24T02:49:14.633Z,5.85
2023-05-24T02:53:21.894Z,5.80
2023-05-24T02:57:29.730Z,5.97
2023-05-24T03:01:40.946Z,5.78
2023-05-24T03:05:45.752Z,6.93
2023-05-24T03:09:51.678Z,5.78
2023-05-24T03:13:54.991Z,6.07
2023-05-24T03:17:58.054Z,5.25
2023-05-24T03:22:04.073Z,6.10
2023-05-24T03:26:07.499Z,5.22
2023-05-24T03:30:16.463Z,5.47
2023-05-24T03:34:19.807Z,5.63
2023-05-24T03:38:24.699Z,5.47
2023-05-24T03:42:32.055Z,5.88
2023-05-24T03:46:35.203Z,6.60
2023-05-24T03:50:41.211Z,5.60
2023-05-24T03:54:47.586Z,6.57
2023-05-24T03:58:52.484Z,5.18
2023-05-24T04:03:00.305Z,6.38
2023-05-24T04:07:03.511Z,5.35
2023-05-24T04:11:08.003Z,5.57
2023-05-24T04:15:14.934Z,5.60
2023-05-24T04:19:22.415Z,5.60
2023-05-24T04:23:25.516Z,4.82
2023-05-24T04:27:31.282Z,5.45
2023-05-24T04:31:37.620Z,5.50
2023-05-24T04:35:44.394Z,5.20
2023-05-24T04:39:47.470Z,6.03
2023-05-24T04:43:53.469Z,4.68
2023-05-24T04:47:57.247Z,4.50
2023-05-24T04:52:00.608Z,5.75
2023-05-24T04:56:05.339Z,5.50
2023-05-24T05:00:11.357Z,6.05
2023-05-24T05:04:18.370Z,4.50
2023-05-24T05:08:21.717Z,5.05
2023-05-24T05:12:24.829Z,5.30
2023-05-24T05:16:30.629Z,5.45
2023-05-24T05:20:37.161Z,5.28
2023-05-24T05:24:41.313Z,5.78
2023-05-24T05:28:44.381Z,5.05
2023-05-24T05:32:53.421Z,4.25
2023-05-24T05:36:57.903Z,4.95
2023-05-24T05:41:03.064Z,5.28
2023-05-24T05:45:07.791Z,4.95
2023-05-24T05:49:12.321Z,5.10
2023-05-24T05:53:19.177Z,5.22
2023-05-24T05:57:24.436Z,5.55
2023-05-24T06:01:29.155Z,5.35
2023-05-24T06:05:35.246Z,5.95
2023-05-24T06:09:38.286Z,5.00
2023-05-24T06:13:43.220Z,5.38
2023-05-24T06:17:48.572Z,5.38
2023-05-24T06:21:56.040Z,5.82
2023-05-24T06:26:03.352Z,5.53
2023-05-24T06:30:07.883Z,5.22
2023-05-24T06:34:13.636Z,5.53
2023-05-24T06:38:19.020Z,6.18
2023-05-24T06:42:27.587Z,5.53
2023-05-24T06:46:30.697Z,4.75
2023-05-24T06:50:34.067Z,6.10
2023-05-24T06:54:38.502Z,5.57
2023-05-24T06:58:42.092Z,5.70
2023-05-24T07:02:47.258Z,5.45
2023-05-24T07:06:51.871Z,4.38
2023-05-24T07:11:02.707Z,5.30
2023-05-24T07:15:07.439Z,5.30
2023-05-24T07:19:13.406Z,5.32
2023-05-24T07:23:19.790Z,5.20
2023-05-24T07:27:26.771Z,5.18
2023-05-24T07:31:32.610Z,5.22
2023-05-24T07:35:37.175Z,6.05
2023-05-24T07:39:45.021Z,6.05
2023-05-24T07:43:49.743Z,5.78
2023-05-24T07:47:57.073Z,6.35
2023-05-24T07:52:00.523Z,6.38
2023-05-24T07:56:08.047Z,6.75
2023-05-24T08:00:14.951Z,6.68
2023-05-24T08:04:23.542Z,6.03
2023-05-24T08:08:28.160Z,6.15
2023-05-24T08:12:31.505Z,6.10
2023-05-24T08:16:39.116Z,6.53
2023-05-24T08:20:44.139Z,6.57
2023-05-24T08:24:47.479Z,7.28
2023-05-24T08:28:53.583Z,6.97
2023-05-24T08:33:01.354Z,6.22
2023-05-24T08:37:04.950Z,5.68
2023-05-24T08:41:12.337Z,6.00
2023-05-24T08:45:19.441Z,5.97
2023-05-24T08:49:24.070Z,6.10
2023-05-24T08:53:28.202Z,6.05
2023-05-24T08:57:35.906Z,6.43
2023-05-24T09:01:41.528Z,6.15
2023-05-24T09:05:46.732Z,5.95
2023-05-24T09:09:56.634Z,6.85
2023-05-24T09:14:00.010Z,6.25
2023-05-24T09:18:03.080Z,6.00
2023-05-24T09:22:10.872Z,6.68
2023-05-24T09:26:14.662Z,5.28
2023-05-24T09:30:18.136Z,5.00
2023-05-24T09:34:25.988Z,6.63
2023-05-24T09:38:30.803Z,6.28
2023-05-24T09:42:34.724Z,5.85
2023-05-24T09:46:38.804Z,5.75
2023-05-24T09:51:00.777Z,5.65
2023-05-24T09:55:14.427Z,4.88
2023-05-24T09:59:18.362Z,5.13
2023-05-24T10:03:26.972Z,5.65
2023-05-24T10:07:31.915Z,4.78
2023-05-24T10:11:37.466Z,5.13
2023-05-24T10:15:42.596Z,5.78
2023-05-24T10:19:46.362Z,4.88
2023-05-24T10:23:53.893Z,5.22
2023-05-24T10:27:59.816Z,5.00
2023-05-24T10:32:08.220Z,4.13
2023-05-24T10:36:14.347Z,4.60
2023-05-24T10:40:27.995Z,4.22
2023-05-24T10:44:32.702Z,4.20
2023-05-24T10:48:41.011Z,4.50
2023-05-24T10:52:54.197Z,5.28
2023-05-24T10:57:04.866Z,5.05
2023-05-24T11:01:14.767Z,4.30
2023-05-24T11:05:22.374Z,4.63
2023-05-24T11:09:28.674Z,4.57
2023-05-24T11:13:36.776Z,3.67
2023-05-24T11:18:13.516Z,3.90
2023-05-24T11:22:20.818Z,3.72
2023-05-24T11:26:29.262Z,4.13
2023-05-24T11:30:34.054Z,3.97
2023-05-24T11:34:37.335Z,3.90
2023-05-24T11:38:45.966Z,3.42
2023-05-24T11:42:49.007Z,3.65
2023-05-24T11:46:58.816Z,3.88
2023-05-24T11:51:04.861Z,3.50
2023-05-24T11:55:16.435Z,3.65
2023-05-24T11:59:24.453Z,3.85
2023-05-24T12:03:28.326Z,3.92
2023-05-24T12:07:34.390Z,3.92
2023-05-24T12:11:42.210Z,3.95
2023-05-24T12:15:48.367Z,3.85
2023-05-24T12:19:56.035Z,3.88
2023-05-24T12:23:59.339Z,3.65
2023-05-24T12:28:05.879Z,4.10
2023-05-24T12:32:13.539Z,4.00
2023-05-24T12:36:18.636Z,3.80
2023-05-24T12:40:23.674Z,4.00
2023-05-24T12:44:30.377Z,3.47
2023-05-24T12:48:33.450Z,3.95
2023-05-24T12:52:36.736Z,3.25
2023-05-24T12:56:41.742Z,3.92
2023-05-24T13:00:50.419Z,3.47
2023-05-24T13:04:53.572Z,3.60
2023-05-24T13:08:57.738Z,3.72
2023-05-24T13:13:00.982Z,3.72
2023-05-24T13:17:06.396Z,3.90
2023-05-24T13:21:12.480Z,3.97
2023-05-24T13:25:15.765Z,3.58
2023-05-24T13:29:36.575Z,3.75
2023-05-24T13:33:44.338Z,4.10
2023-05-24T13:37:49.404Z,3.50
2023-05-24T13:41:55.285Z,3.38
2023-05-24T13:46:00.267Z,3.92
2023-05-24T13:50:08.744Z,3.60
2023-05-24T13:54:14.011Z,4.40
2023-05-24T13:58:20.216Z,4.10
2023-05-24T14:02:23.928Z,3.63
2023-05-24T14:06:29.069Z,3.72
2023-05-24T14:10:32.145Z,3.58
2023-05-24T14:18:49.261Z,4.43
2023-05-24T14:22:58.404Z,3.60
2023-05-24T14:27:07.118Z,3.80
2023-05-24T14:31:10.475Z,3.67
2023-05-24T14:35:13.623Z,3.70
2023-05-24T14:39:27.801Z,3.25
2023-05-24T14:43:30.941Z,3.55
2023-05-24T14:47:34.331Z,3.50
2023-05-24T14:51:37.425Z,2.97
2023-05-24T14:55:43.977Z,3.38
2023-05-24T14:59:50.460Z,3.17
2023-05-24T15:03:55.815Z,3.75
2023-05-24T15:07:59.005Z,3.70
2023-05-24T15:12:05.186Z,3.42
2023-05-24T15:16:14.083Z,3.90
2023-05-24T15:20:19.733Z,3.80
2023-05-24T15:24:25.306Z,3.30
2023-05-24T15:28:30.797Z,3.72
2023-05-24T15:32:33.839Z,3.33
2023-05-24T15:36:41.156Z,3.58
2023-05-24T15:40:44.541Z,3.42
2023-05-24T15:44:49.720Z,3.30
2023-05-24T15:48:54.414Z,3.97
2023-05-24T15:52:57.528Z,4.60
2023-05-24T15:57:01.987Z,4.05
2023-05-24T16:01:06.905Z,3.60
2023-05-24T16:05:10.568Z,3.72
2023-05-24T16:09:16.346Z,3.83
2023-05-24T16:13:20.906Z,3.95
2023-05-24T16:17:27.898Z,3.33
2023-05-24T16:21:31.232Z,2.92
2023-05-24T16:25:34.624Z,3.75
2023-05-24T16:29:39.783Z,3.35
2023-05-24T16:33:45.817Z,3.58
2023-05-24T16:37:49.942Z,3.22
2023-05-24T16:41:52.988Z,3.53
2023-05-24T16:46:02.213Z,3.85
2023-05-24T16:50:14.686Z,3.45
2023-05-24T16:54:22.358Z,3.63
2023-05-24T16:58:28.144Z,3.40
2023-05-24T17:02:32.774Z,3.85
2023-05-24T17:06:39.908Z,3.97
2023-05-24T17:10:43.774Z,3.70
2023-05-24T17:14:49.081Z,4.13
2023-05-24T17:18:52.210Z,3.45
2023-05-24T17:22:57.697Z,3.80
2023-05-24T17:27:06.258Z,4.05
2023-05-24T17:31:09.992Z,3.65
2023-05-24T17:35:15.094Z,3.92
2023-05-24T17:39:20.198Z,3.38
2023-05-24T17:43:23.439Z,3.60
2023-05-24T17:47:26.596Z,3.72
2023-05-24T17:51:30.101Z,3.03
2023-05-24T17:55:36.364Z,4.03
2023-05-24T17:59:39.410Z,4.10
2023-05-24T18:03:42.929Z,3.78
2023-05-24T18:07:51.753Z,3.30
2023-05-24T18:11:57.014Z,3.63
2023-05-24T18:16:00.205Z,3.30
2023-05-24T18:20:05.161Z,3.63
2023-05-24T18:24:09.625Z,3.75
2023-05-24T18:28:16.368Z,3.95
2023-05-24T18:32:19.589Z,3.35
2023-05-24T18:36:22.718Z,3.45
2023-05-24T18:40:28.939Z,3.75
2023-05-24T18:44:37.155Z,4.03
2023-05-24T18:48:41.187Z,3.30
2023-05-24T18:52:44.229Z,3.50
2023-05-24T18:56:47.777Z,3.30
2023-05-24T19:00:56.355Z,4.43
2023-05-24T19:04:59.478Z,3.90
2023-05-24T19:09:03.744Z,3.80
2023-05-24T19:13:07.414Z,4.00
2023-05-24T19:17:12.208Z,3.40
2023-05-24T19:21:17.200Z,4.65
2023-05-24T19:25:21.242Z,4.10
2023-05-24T19:29:24.396Z,3.80
2023-05-24T19:33:30.927Z,4.25
2023-05-24T19:37:35.012Z,3.40
2023-05-24T19:41:38.052Z,3.85
2023-05-24T19:45:42.215Z,3.60
2023-05-24T19:49:52.477Z,3.67
2023-05-24T19:53:55.810Z,3.45
2023-05-24T19:57:59.257Z,3.67
2023-05-24T20:02:02.558Z,3.95
2023-05-24T20:06:07.308Z,3.40
2023-05-24T20:10:11.540Z,3.42
2023-05-24T20:14:14.719Z,3.83
2023-05-24T20:18:17.876Z,3.42
2023-05-24T20:22:24.739Z,4.38
2023-05-24T20:26:28.985Z,3.55
2023-05-24T20:30:35.187Z,3.75
2023-05-24T20:34:38.185Z,3.58
2023-05-24T20:38:44.986Z,3.88
2023-05-24T20:42:48.241Z,3.80
2023-05-24T20:46:55.134Z,4.13
2023-05-24T20:50:58.606Z,4.00
2023-05-24T20:55:03.090Z,4.20
2023-05-24T20:59:06.476Z,4.75
2023-05-24T21:03:12.747Z,5.28
2023-05-24T21:07:19.413Z,4.95
2023-05-24T21:11:24.293Z,3.55
2023-05-24T21:15:27.587Z,3.97
2023-05-24T21:19:32.545Z,4.75
2023-05-24T21:23:43.053Z,3.13
2023-05-24T21:27:47.782Z,4.00
2023-05-24T21:31:50.909Z,4.60
2023-05-24T21:35:54.138Z,3.83
2023-05-24T21:39:57.253Z,3.38
2023-05-24T21:44:06.399Z,5.20
2023-05-24T21:48:10.121Z,4.10
2023-05-24T21:52:13.552Z,4.57
2023-05-24T21:56:19.733Z,4.55
2023-05-24T22:00:24.498Z,3.95
2023-05-24T22:04:27.598Z,4.72
2023-05-24T22:08:37.831Z,4.65
2023-05-24T22:12:44.092Z,4.68
2023-05-24T22:16:49.477Z,5.07
2023-05-24T22:20:52.893Z,4.70
2023-05-24T22:24:59.571Z,4.65
2023-05-24T22:29:04.053Z,4.22
2023-05-24T22:33:10.218Z,5.35
2023-05-24T22:37:16.576Z,3.95
2023-05-24T22:41:19.822Z,4.20
2023-05-24T22:45:23.356Z,4.53
2023-05-24T22:49:29.694Z,4.60
2023-05-24T22:53:32.813Z,4.82
2023-05-24T22:57:36.348Z,5.00
2023-05-24T23:01:39.639Z,5.22
2023-05-24T23:05:45.817Z,4.95
2023-05-24T23:09:49.373Z,5.18
2023-05-24T23:13:52.587Z,4.88
2023-05-24T23:18:02.828Z,5.30
2023-05-24T23:22:07.343Z,4.90
2023-05-24T23:26:13.151Z,5.35
2023-05-24T23:30:20.128Z,5.18
2023-05-24T23:34:23.171Z,5.30
2023-05-24T23:38:27.629Z,5.05
2023-05-24T23:42:32.088Z,5.00
2023-05-24T23:46:38.765Z,5.40
2023-05-24T23:50:53.560Z,4.93
2023-05-24T23:54:59.003Z,4.78
2023-05-24T23:59:06.886Z,5.82
